createdAt,value
2023-01-30T00:01:52.140Z,23.85
2023-01-30T00:04:19.851Z,28.30
2023-01-30T00:06:47.567Z,27.35
2023-01-30T00:09:15.734Z,29.70
2023-01-30T00:11:43.417Z,26.98
2023-01-30T00:14:11.316Z,26.98
2023-01-30T00:16:40.382Z,27.17
2023-01-30T00:19:08.375Z,25.52
2023-01-30T00:21:36.046Z,29.48
2023-01-30T00:24:03.780Z,27.73
2023-01-30T00:26:31.560Z,28.00
2023-01-30T00:28:59.308Z,29.98
2023-01-30T00:31:27.226Z,25.20
2023-01-30T00:33:56.205Z,23.05
2023-01-30T00:36:23.863Z,28.40
2023-01-30T00:38:51.595Z,25.63
2023-01-30T00:41:19.268Z,24.67
2023-01-30T00:44:04.510Z,28.08
2023-01-30T00:46:52.283Z,30.05
2023-01-30T00:49:22.388Z,27.85
2023-01-30T00:51:50.087Z,27.70
2023-01-30T00:54:17.814Z,25.30
2023-01-30T00:56:45.884Z,26.92
2023-01-30T00:59:13.570Z,23.90
2023-01-30T01:01:41.480Z,25.30
2023-01-30T01:04:10.530Z,26.20
2023-01-30T01:06:40.079Z,25.80
2023-01-30T01:09:08.098Z,25.20
2023-01-30T01:11:36.313Z,25.70
2023-01-30T01:14:05.820Z,26.92
2023-01-30T01:16:34.228Z,26.40
2023-01-30T01:19:03.058Z,27.60
2023-01-30T01:21:31.125Z,27.70
2023-01-30T01:24:01.178Z,25.73
2023-01-30T01:26:29.293Z,26.33
2023-01-30T01:28:57.998Z,27.85
2023-01-30T01:31:26.585Z,28.67
2023-01-30T01:33:54.377Z,26.38
2023-01-30T01:36:51.551Z,26.00
2023-01-30T01:39:12.134Z,26.33
2023-01-30T01:41:38.804Z,28.88
2023-01-30T01:44:08.488Z,26.75
2023-01-30T01:46:39.101Z,27.67
2023-01-30T01:49:14.164Z,29.52
2023-01-30T01:51:49.712Z,29.95
2023-01-30T01:54:22.437Z,28.73
2023-01-30T01:56:51.272Z,25.00
2023-01-30T01:59:25.391Z,24.77
2023-01-30T02:01:57.066Z,28.25
2023-01-30T02:04:46.331Z,23.95
2023-01-30T02:07:15.716Z,26.33
2023-01-30T02:09:45.520Z,27.38
2023-01-30T02:12:15.722Z,29.05
2023-01-30T02:14:44.929Z,24.85
2023-01-30T02:17:12.687Z,29.30
2023-01-30T02:19:48.904Z,27.08
2023-01-30T02:22:45.303Z,24.50
2023-01-30T02:25:56.610Z,27.17
2023-01-30T02:28:48.823Z,25.40
2023-01-30T02:31:28.545Z,26.95
2023-01-30T02:34:09.040Z,23.05
2023-01-30T02:36:47.653Z,23.92
2023-01-30T02:39:27.660Z,25.67
2023-01-30T02:42:05.327Z,23.58
2023-01-30T02:44:44.006Z,27.95
2023-01-30T02:47:18.740Z,24.95
2023-01-30T02:49:51.409Z,27.67
2023-01-30T02:52:20.027Z,26.83
2023-01-30T02:54:47.738Z,26.00
2023-01-30T02:57:21.486Z,27.50
2023-01-30T02:59:52.554Z,29.98
2023-01-30T03:02:43.434Z,30.33
2023-01-30T03:05:52.301Z,31.63
2023-01-30T03:08:32.858Z,29.33
2023-01-30T03:11:03.051Z,26.10
2023-01-30T03:13:48.315Z,26.80
2023-01-30T03:16:20.147Z,28.67
2023-01-30T03:18:50.493Z,23.30
2023-01-30T03:21:18.587Z,28.80
2023-01-30T03:23:47.256Z,25.20
2023-01-30T03:26:19.016Z,29.42
2023-01-30T03:28:49.987Z,24.70
2023-01-30T03:31:17.803Z,26.35
2023-01-30T03:33:45.865Z,24.55
2023-01-30T03:36:15.465Z,25.55
2023-01-30T03:38:43.239Z,15.88
2023-01-30T03:41:11.017Z,23.30
2023-01-30T03:43:38.637Z,22.17
2023-01-30T03:46:06.439Z,14.38
2023-01-30T03:48:34.164Z,19.85
2023-01-30T03:51:01.844Z,22.63
2023-01-30T03:53:30.894Z,21.08
2023-01-30T03:55:58.587Z,23.02
2023-01-30T03:58:26.416Z,17.60
2023-01-30T04:00:55.939Z,23.67
2023-01-30T04:03:23.792Z,23.35
2023-01-30T04:05:51.577Z,20.52
2023-01-30T04:08:19.277Z,19.63
2023-01-30T04:10:48.381Z,24.83
2023-01-30T04:13:16.062Z,22.27
2023-01-30T04:15:43.879Z,22.73
2023-01-30T04:18:11.573Z,21.55
2023-01-30T04:20:39.797Z,22.90
2023-01-30T04:23:07.453Z,19.55
2023-01-30T04:25:35.201Z,25.35
2023-01-30T04:28:04.448Z,25.63
2023-01-30T04:30:32.224Z,21.98
2023-01-30T04:32:59.890Z,19.38
2023-01-30T04:35:27.515Z,22.35
2023-01-30T04:37:55.157Z,20.15
2023-01-30T04:40:22.830Z,19.17
2023-01-30T04:42:50.550Z,21.05
2023-01-30T04:45:19.898Z,20.98
2023-01-30T04:47:47.758Z,21.20
2023-01-30T04:50:15.586Z,18.25
2023-01-30T04:52:43.463Z,18.35
2023-01-30T04:55:11.181Z,18.70
2023-01-30T04:57:38.917Z,22.23
2023-01-30T05:00:08.960Z,20.35
2023-01-30T05:02:38.034Z,19.85
2023-01-30T05:05:06.398Z,20.52
2023-01-30T05:07:34.127Z,22.10
2023-01-30T05:10:02.829Z,18.02
2023-01-30T05:12:30.937Z,16.65
2023-01-30T05:14:58.718Z,15.32
2023-01-30T05:17:26.521Z,17.00
2023-01-30T05:19:55.552Z,19.42
2023-01-30T05:22:23.236Z,18.90
2023-01-30T05:24:51.060Z,14.73
2023-01-30T05:27:18.970Z,20.10
2023-01-30T05:29:46.645Z,20.23
2023-01-30T05:32:15.735Z,18.73
2023-01-30T05:34:43.471Z,18.98
2023-01-30T05:37:13.403Z,18.35
2023-01-30T05:39:41.307Z,22.83
2023-01-30T05:42:09.004Z,18.65
2023-01-30T05:44:36.795Z,17.95
2023-01-30T05:47:04.549Z,16.92
2023-01-30T05:49:32.176Z,21.10
2023-01-30T05:51:59.812Z,17.52
2023-01-30T05:54:28.776Z,15.82
2023-01-30T05:56:56.508Z,17.40
2023-01-30T05:59:24.409Z,15.15
2023-01-30T06:01:52.121Z,17.58
2023-01-30T06:04:19.825Z,18.60
2023-01-30T06:06:50.111Z,20.55
2023-01-30T06:09:17.865Z,18.42
2023-01-30T06:11:46.928Z,20.27
2023-01-30T06:14:14.591Z,19.65
2023-01-30T06:16:42.301Z,16.42
2023-01-30T06:19:10.243Z,17.75
2023-01-30T06:22:06.111Z,19.67
2023-01-30T06:24:33.817Z,19.75
2023-01-30T06:27:02.825Z,19.23
2023-01-30T06:29:30.460Z,22.92
2023-01-30T06:31:58.181Z,21.63
2023-01-30T06:34:25.891Z,16.38
2023-01-30T06:36:53.560Z,37.47
2023-01-30T06:39:21.334Z,22.45
2023-01-30T06:41:48.984Z,27.83
2023-01-30T06:44:18.051Z,22.50
2023-01-30T06:46:45.745Z,20.90
2023-01-30T06:49:13.403Z,19.10
2023-01-30T06:51:41.121Z,22.38
2023-01-30T06:54:08.790Z,23.20
2023-01-30T06:56:36.628Z,20.10
2023-01-30T06:59:04.360Z,17.95
2023-01-30T07:01:33.580Z,16.35
2023-01-30T07:04:01.313Z,17.33
2023-01-30T07:06:29.019Z,18.63
2023-01-30T07:08:58.501Z,18.95
2023-01-30T07:11:26.340Z,18.45
2023-01-30T07:13:54.013Z,17.23
2023-01-30T07:16:23.984Z,19.02
2023-01-30T07:18:53.028Z,17.17
2023-01-30T07:21:20.602Z,17.67
2023-01-30T07:23:48.347Z,19.45
2023-01-30T07:26:16.192Z,17.77
2023-01-30T07:28:44.036Z,15.90
2023-01-30T07:31:11.768Z,20.83
2023-01-30T07:33:39.481Z,17.67
2023-01-30T07:36:09.377Z,18.77
2023-01-30T07:38:37.110Z,19.45
2023-01-30T07:41:04.799Z,14.98
2023-01-30T07:43:32.478Z,15.77
2023-01-30T07:46:01.699Z,17.10
2023-01-30T07:48:29.340Z,19.83
2023-01-30T07:50:57.833Z,14.13
2023-01-30T07:53:27.008Z,15.80
2023-01-30T07:55:54.709Z,15.52
2023-01-30T07:58:22.373Z,17.38
2023-01-30T08:00:50.098Z,17.35
2023-01-30T08:03:18.325Z,14.70
2023-01-30T08:05:47.063Z,13.63
2023-01-30T08:08:14.868Z,15.27
2023-01-30T08:10:44.298Z,17.65
2023-01-30T08:13:12.042Z,18.85
2023-01-30T08:15:39.681Z,16.42
2023-01-30T08:18:08.101Z,15.10
2023-01-30T08:20:36.821Z,17.45
2023-01-30T08:23:04.629Z,17.33
2023-01-30T08:25:32.508Z,15.65
2023-01-30T08:28:01.532Z,14.35
2023-01-30T08:30:30.694Z,15.10
2023-01-30T08:32:59.067Z,12.85
2023-01-30T08:35:26.845Z,11.85
2023-01-30T08:37:54.593Z,14.50
2023-01-30T08:40:22.257Z,17.92
2023-01-30T08:42:49.923Z,16.35
2023-01-30T08:45:18.978Z,14.48
2023-01-30T08:47:46.676Z,15.05
2023-01-30T08:50:14.397Z,16.15
2023-01-30T08:52:42.054Z,15.77
2023-01-30T08:55:10.449Z,14.43
2023-01-30T08:57:38.333Z,10.98
2023-01-30T09:00:07.259Z,12.55
2023-01-30T09:02:38.926Z,12.88
2023-01-30T09:07:34.900Z,11.48
2023-01-30T09:10:02.754Z,13.48
2023-01-30T09:12:30.798Z,15.40
2023-01-30T09:15:00.466Z,15.25
2023-01-30T09:17:28.315Z,8.80
2023-01-30T09:19:57.459Z,8.68
2023-01-30T09:22:27.215Z,12.10
2023-01-30T09:24:55.107Z,10.63
2023-01-30T09:27:22.767Z,12.40
2023-01-30T09:29:50.518Z,13.50
2023-01-30T09:32:18.246Z,13.98
2023-01-30T09:34:46.034Z,10.65
2023-01-30T09:37:15.990Z,12.90
2023-01-30T09:39:43.791Z,10.82
2023-01-30T09:42:38.179Z,14.45
2023-01-30T09:45:35.106Z,14.50
2023-01-30T09:48:13.782Z,12.13
2023-01-30T09:51:14.343Z,11.57
2023-01-30T09:54:00.228Z,10.77
2023-01-30T09:56:28.921Z,15.00
2023-01-30T09:58:59.649Z,10.10
2023-01-30T10:01:34.198Z,10.00
2023-01-30T10:04:15.683Z,10.48
2023-01-30T10:06:52.233Z,9.95
2023-01-30T10:09:33.995Z,7.65
2023-01-30T10:12:13.403Z,10.23
2023-01-30T10:14:55.185Z,8.35
2023-01-30T10:17:44.771Z,6.85
2023-01-30T10:20:31.515Z,8.20
2023-01-30T10:23:16.484Z,6.25
2023-01-30T10:25:48.246Z,7.55
2023-01-30T10:28:21.419Z,8.02
2023-01-30T10:30:52.910Z,7.53
2023-01-30T10:33:25.840Z,9.40
2023-01-30T10:36:01.528Z,4.72
2023-01-30T10:38:34.760Z,4.88
2023-01-30T10:41:11.189Z,5.75
2023-01-30T10:43:43.688Z,3.30
2023-01-30T10:46:24.622Z,6.50
2023-01-30T10:48:59.388Z,5.68
2023-01-30T10:51:38.236Z,8.18
2023-01-30T10:54:14.764Z,4.18
2023-01-30T10:56:51.683Z,5.93
2023-01-30T10:59:25.643Z,5.53
2023-01-30T11:02:00.704Z,5.05
2023-01-30T11:04:36.861Z,4.78
2023-01-30T11:07:05.226Z,4.80
2023-01-30T11:09:40.595Z,4.63
2023-01-30T11:12:09.918Z,8.30
2023-01-30T11:14:55.037Z,3.80
2023-01-30T11:17:30.117Z,6.90
2023-01-30T11:20:02.863Z,2.40
2023-01-30T11:22:36.400Z,5.47
2023-01-30T11:25:09.577Z,4.85
2023-01-30T11:27:40.644Z,6.85
2023-01-30T11:30:15.626Z,5.32
2023-01-30T11:32:45.110Z,5.78
2023-01-30T11:35:26.495Z,7.00
2023-01-30T11:37:55.132Z,5.45
2023-01-30T11:40:31.120Z,6.20
2023-01-30T11:43:12.027Z,4.10
2023-01-30T11:45:43.021Z,7.05
2023-01-30T11:48:32.955Z,6.93
2023-01-30T11:51:05.444Z,7.05
2023-01-30T11:53:37.237Z,5.45
2023-01-30T11:56:09.790Z,8.13
2023-01-30T11:58:41.574Z,6.63
2023-01-30T12:01:11.407Z,8.02
2023-01-30T12:03:46.938Z,6.95
2023-01-30T12:06:23.264Z,7.60
2023-01-30T12:08:54.471Z,8.43
2023-01-30T12:11:29.044Z,7.55
2023-01-30T12:14:07.784Z,7.07
2023-01-30T12:16:47.717Z,6.85
2023-01-30T12:19:30.750Z,7.55
2023-01-30T12:22:05.495Z,8.20
2023-01-30T12:24:42.374Z,6.47
2023-01-30T12:27:17.540Z,7.40
2023-01-30T12:29:56.663Z,10.88
2023-01-30T12:32:29.149Z,8.63
2023-01-30T12:34:57.420Z,8.07
2023-01-30T12:37:42.644Z,10.98
2023-01-30T12:40:22.762Z,8.52
2023-01-30T12:43:13.943Z,6.75
2023-01-30T12:45:52.268Z,8.23
2023-01-30T12:49:10.273Z,9.27
2023-01-30T12:51:55.448Z,7.25
2023-01-30T12:54:46.651Z,6.80
2023-01-30T12:57:23.414Z,7.72
2023-01-30T13:00:04.567Z,10.02
2023-01-30T13:02:52.860Z,8.95
2023-01-30T13:05:32.271Z,8.60
2023-01-30T13:08:25.429Z,8.88
2023-01-30T13:11:00.171Z,10.38
2023-01-30T13:13:36.192Z,7.65
2023-01-30T13:16:08.585Z,17.40
2023-01-30T13:18:44.443Z,12.77
2023-01-30T13:21:18.914Z,10.98
2023-01-30T13:23:59.363Z,8.82
2023-01-30T13:26:34.237Z,16.77
2023-01-30T13:29:06.448Z,10.18
2023-01-30T13:31:39.070Z,9.90
2023-01-30T13:34:13.170Z,9.77
2023-01-30T13:36:46.949Z,11.75
2023-01-30T13:39:19.214Z,11.27
2023-01-30T13:41:51.048Z,17.08
2023-01-30T13:44:24.192Z,12.48
2023-01-30T13:46:54.630Z,9.35
2023-01-30T13:49:31.708Z,14.10
2023-01-30T13:52:07.439Z,10.13
2023-01-30T13:54:48.610Z,11.50
2023-01-30T13:57:26.814Z,12.10
2023-01-30T14:00:28.467Z,20.52
2023-01-30T14:03:23.043Z,9.15
2023-01-30T14:06:13.165Z,9.27
2023-01-30T14:08:50.411Z,7.90
2023-01-30T14:11:34.192Z,10.73
2023-01-30T14:14:05.904Z,12.15
2023-01-30T14:16:48.194Z,12.00
2023-01-30T14:19:41.490Z,7.15
2023-01-30T14:22:24.200Z,8.43
2023-01-30T14:25:29.262Z,12.30
2023-01-30T14:28:52.756Z,12.68
2023-01-30T14:31:49.777Z,6.65
2023-01-30T14:34:43.780Z,7.55
2023-01-30T14:37:54.780Z,3.92
2023-01-30T14:40:51.729Z,4.60
2023-01-30T14:43:38.643Z,5.47
2023-01-30T14:46:09.153Z,2.80
2023-01-30T14:48:45.482Z,6.43
2023-01-30T14:51:22.161Z,3.10
2023-01-30T14:53:59.826Z,2.80
2023-01-30T14:56:43.412Z,7.90
2023-01-30T14:59:25.035Z,3.30
2023-01-30T15:02:22.441Z,4.93
2023-01-30T15:05:02.094Z,11.80
2023-01-30T15:07:39.659Z,5.93
2023-01-30T15:10:28.792Z,5.97
2023-01-30T15:13:27.840Z,8.75
2023-01-30T15:16:08.387Z,5.47
2023-01-30T15:18:55.462Z,6.05
2023-01-30T15:21:50.811Z,7.45
2023-01-30T15:24:32.988Z,7.00
2023-01-30T15:27:12.031Z,6.72
2023-01-30T15:30:00.819Z,6.95
2023-01-30T15:32:30.207Z,7.35
2023-01-30T15:34:59.949Z,7.20
2023-01-30T15:37:34.894Z,7.60
2023-01-30T15:40:20.352Z,8.95
2023-01-30T15:42:50.312Z,8.70
2023-01-30T15:45:28.991Z,7.55
2023-01-30T15:48:15.779Z,6.65
2023-01-30T15:50:49.604Z,8.65
2023-01-30T15:53:19.098Z,7.30
2023-01-30T15:55:47.869Z,5.03
2023-01-30T15:58:20.760Z,8.25
2023-01-30T16:00:50.856Z,11.73
2023-01-30T16:03:22.762Z,8.05
2023-01-30T16:05:52.173Z,11.15
2023-01-30T16:08:24.161Z,11.02
2023-01-30T16:10:52.691Z,9.32
2023-01-30T16:13:22.981Z,8.55
2023-01-30T16:15:56.228Z,6.68
2023-01-30T16:18:31.464Z,8.82
2023-01-30T16:21:02.847Z,8.88
2023-01-30T16:23:36.355Z,6.95
2023-01-30T16:26:05.720Z,5.57
2023-01-30T16:28:34.986Z,8.82
2023-01-30T16:31:05.522Z,8.88
2023-01-30T16:33:36.627Z,7.35
2023-01-30T16:36:06.326Z,11.10
2023-01-30T16:38:40.997Z,8.02
2023-01-30T16:41:29.745Z,9.05
2023-01-30T16:44:10.458Z,13.30
2023-01-30T16:46:51.403Z,9.20
2023-01-30T16:49:23.767Z,11.35
2023-01-30T16:51:59.811Z,13.68
2023-01-30T16:54:31.421Z,8.75
2023-01-30T16:57:02.334Z,8.60
2023-01-30T16:59:33.093Z,12.20
2023-01-30T17:02:03.184Z,9.90
2023-01-30T17:04:33.335Z,10.30
2023-01-30T17:07:04.114Z,11.32
2023-01-30T17:09:45.824Z,11.82
2023-01-30T17:12:37.061Z,10.38
2023-01-30T17:15:30.800Z,7.78
2023-01-30T17:17:58.674Z,13.43
2023-01-30T17:20:33.126Z,10.35
2023-01-30T17:23:06.017Z,6.88
2023-01-30T17:25:39.345Z,7.32
2023-01-30T17:28:08.572Z,8.10
2023-01-30T17:30:36.355Z,6.40
2023-01-30T17:33:04.147Z,11.40
2023-01-30T17:35:31.833Z,10.43
2023-01-30T17:38:05.360Z,8.35
2023-01-30T17:40:37.566Z,13.40
2023-01-30T17:43:05.889Z,9.55
2023-01-30T17:45:33.685Z,21.05
2023-01-30T17:48:01.709Z,14.35
2023-01-30T17:50:29.529Z,9.35
2023-01-30T17:52:57.233Z,10.77
2023-01-30T17:55:25.036Z,10.13
2023-01-30T17:57:54.995Z,9.02
2023-01-30T18:00:23.831Z,8.68
2023-01-30T18:02:51.587Z,8.10
2023-01-30T18:05:19.370Z,7.20
2023-01-30T18:07:47.080Z,8.10
2023-01-30T18:10:17.211Z,14.27
2023-01-30T18:12:45.505Z,12.55
2023-01-30T18:15:16.591Z,19.35
2023-01-30T18:17:47.735Z,8.23
2023-01-30T18:20:17.950Z,10.00
2023-01-30T18:22:46.269Z,10.43
2023-01-30T18:25:14.503Z,9.50
2023-01-30T18:27:43.928Z,7.75
2023-01-30T18:30:15.836Z,18.92
2023-01-30T18:32:52.855Z,10.18
2023-01-30T18:35:21.644Z,10.63
2023-01-30T18:37:49.894Z,14.05
2023-01-30T18:40:18.668Z,10.18
2023-01-30T18:42:46.818Z,12.77
2023-01-30T18:45:14.648Z,13.48
2023-01-30T18:47:42.365Z,12.48
2023-01-30T18:50:12.797Z,13.15
2023-01-30T18:52:40.534Z,13.65
2023-01-30T18:55:08.929Z,6.75
2023-01-30T18:57:36.627Z,11.85
2023-01-30T19:00:05.340Z,9.15
2023-01-30T19:02:33.128Z,10.82
2023-01-30T19:05:00.868Z,12.27
2023-01-30T19:07:29.954Z,12.55
2023-01-30T19:09:57.591Z,9.68
2023-01-30T19:12:42.450Z,9.02
2023-01-30T19:15:10.992Z,12.50
2023-01-30T19:17:38.683Z,10.77
2023-01-30T19:20:11.003Z,13.57
2023-01-30T19:22:40.426Z,13.75
2023-01-30T19:25:09.528Z,12.65
2023-01-30T19:27:38.335Z,14.45
2023-01-30T19:30:07.456Z,16.70
2023-01-30T19:32:35.374Z,14.43
2023-01-30T19:35:03.266Z,12.13
2023-01-30T19:37:31.026Z,10.75
2023-01-30T19:40:00.053Z,13.57
2023-01-30T19:42:27.860Z,42.95
2023-01-30T19:44:55.615Z,28.95
2023-01-30T19:47:23.464Z,15.90
2023-01-30T19:49:51.183Z,16.90
2023-01-30T19:52:18.857Z,14.73
2023-01-30T19:54:48.001Z,10.90
2023-01-30T19:57:17.010Z,10.32
2023-01-30T19:59:45.228Z,12.68
2023-01-30T20:02:13.685Z,12.93
2023-01-30T20:04:41.496Z,12.85
2023-01-30T20:07:09.659Z,12.35
2023-01-30T20:09:37.426Z,13.68
2023-01-30T20:12:05.480Z,10.88
2023-01-30T20:14:34.621Z,11.07
2023-01-30T20:17:02.435Z,12.52
2023-01-30T20:19:30.178Z,11.35
2023-01-30T20:21:57.882Z,15.10
2023-01-30T20:24:25.631Z,11.32
2023-01-30T20:26:53.448Z,15.05
2023-01-30T20:29:21.220Z,13.75
2023-01-30T20:31:50.336Z,15.65
2023-01-30T20:34:18.192Z,10.27
2023-01-30T20:36:45.974Z,8.23
2023-01-30T20:39:14.882Z,10.20
2023-01-30T20:41:43.052Z,13.60
2023-01-30T20:44:13.545Z,13.00
2023-01-30T20:46:43.050Z,10.50
2023-01-30T20:49:15.554Z,12.07
2023-01-30T20:51:44.087Z,12.80
2023-01-30T20:54:17.065Z,20.67
2023-01-30T20:56:47.153Z,11.18
2023-01-30T20:59:17.140Z,11.00
2023-01-30T21:01:45.590Z,14.80
2023-01-30T21:04:17.670Z,10.65
2023-01-30T21:06:47.104Z,12.70
2023-01-30T21:09:17.571Z,33.40
2023-01-30T21:11:45.455Z,14.20
2023-01-30T21:14:13.502Z,14.57
2023-01-30T21:16:41.961Z,13.60
2023-01-30T21:19:14.101Z,12.02
2023-01-30T21:21:50.181Z,14.82
2023-01-30T21:24:19.925Z,13.57
2023-01-30T21:26:48.650Z,15.68
2023-01-30T21:29:19.214Z,13.93
2023-01-30T21:31:47.254Z,17.35
2023-01-30T21:34:17.015Z,16.10
2023-01-30T21:37:06.797Z,9.55
2023-01-30T21:39:51.974Z,15.95
2023-01-30T21:42:45.660Z,19.67
2023-01-30T21:45:15.991Z,13.82
2023-01-30T21:47:46.089Z,18.40
2023-01-30T21:50:13.951Z,15.75
2023-01-30T21:52:43.243Z,13.65
2023-01-30T21:55:10.982Z,11.23
2023-01-30T21:57:39.138Z,17.45
2023-01-30T22:00:08.063Z,14.95
2023-01-30T22:02:36.407Z,14.77
2023-01-30T22:05:04.473Z,11.75
2023-01-30T22:07:33.105Z,12.32
2023-01-30T22:10:02.505Z,11.63
2023-01-30T22:12:31.627Z,18.25
2023-01-30T22:14:59.398Z,11.45
2023-01-30T22:17:27.163Z,11.40
2023-01-30T22:19:54.892Z,12.55
2023-01-30T22:22:25.596Z,10.98
2023-01-30T22:24:53.295Z,10.80
2023-01-30T22:27:22.458Z,8.68
2023-01-30T22:29:50.334Z,15.50
2023-01-30T22:32:18.056Z,10.68
2023-01-30T22:34:45.797Z,11.60
2023-01-30T22:37:13.713Z,11.10
2023-01-30T22:39:41.411Z,21.55
2023-01-30T22:42:09.233Z,24.25
2023-01-30T22:44:39.637Z,14.55
2023-01-30T22:47:07.415Z,13.38
2023-01-30T22:49:35.148Z,17.50
2023-01-30T22:52:02.939Z,11.80
2023-01-30T22:54:30.687Z,16.77
2023-01-30T22:56:58.407Z,10.95
2023-01-30T22:59:26.192Z,12.27
2023-01-30T23:01:55.226Z,15.95
2023-01-30T23:04:24.633Z,13.93
2023-01-30T23:06:53.054Z,14.80
2023-01-30T23:09:23.302Z,15.07
2023-01-30T23:12:06.910Z,12.25
2023-01-30T23:14:35.719Z,8.65
2023-01-30T23:17:26.260Z,16.50
2023-01-30T23:19:53.727Z,12.40
2023-01-30T23:22:21.507Z,10.50
2023-01-30T23:24:51.019Z,13.73
2023-01-30T23:27:18.866Z,17.42
2023-01-30T23:29:46.612Z,20.05
2023-01-30T23:32:19.055Z,12.27
2023-01-30T23:34:46.901Z,14.00
2023-01-30T23:37:14.567Z,15.18
2023-01-30T23:39:42.324Z,10.45
2023-01-30T23:42:10.123Z,18.33
2023-01-30T23:44:37.893Z,10.23
2023-01-30T23:47:05.628Z,17.52
2023-01-30T23:49:35.332Z,12.30
2023-01-30T23:52:03.154Z,16.70
2023-01-30T23:54:30.875Z,16.58
2023-01-30T23:56:58.567Z,18.00
2023-01-30T23:59:26.183Z,17.77
